Time;durP1;ratioP1;P1;durP2;ratioP2;P2;SDS_P1;SDS_P2;PMS_P1;PMS_P2;Temp;Humidity;BMP_temperature;BMP_pressure;BME280_temperature;BME280_humidity;BME280_pressure;Samples;Min_cycle;Max_cycle;Signal;HPM_P1;HPM_P2
2022/08/03 00:01:18;;;;;;;9.25;2.90;;;;;;;21.74;54.53;95273.13;5080904;28;20042;-85
2022/08/03 00:03:44;;;;;;;4.03;2.42;;;;;;;21.46;54.03;95219.09;5102036;28;20450;-85
2022/08/03 00:06:09;;;;;;;4.32;2.53;;;;;;;21.29;54.04;95198.56;5084530;28;20090;-85
2022/08/03 00:08:35;;;;;;;4.15;2.47;;;;;;;21.14;53.84;95164.19;5084631;28;20046;-85
2022/08/03 00:11:00;;;;;;;6.13;2.10;;;;;;;22.00;53.70;95284.31;5084364;28;20490;-85
2022/08/03 00:13:26;;;;;;;9.27;2.88;;;;;;;21.95;53.88;95293.44;5084492;28;20444;-85
2022/08/03 00:15:51;;;;;;;6.07;2.40;;;;;;;21.51;54.30;95230.44;5084889;28;20040;-85
2022/08/03 00:18:17;;;;;;;7.55;2.47;;;;;;;21.64;54.29;95242.00;5104280;28;20492;-85
2022/08/03 00:20:43;;;;;;;6.45;2.42;;;;;;;21.93;54.13;95295.69;5084950;28;20035;-86
2022/08/03 00:23:09;;;;;;;5.13;2.55;;;;;;;21.81;54.32;95266.03;5103988;28;20035;-85
2022/08/03 00:25:35;;;;;;;6.55;2.53;;;;;;;21.89;54.35;95291.31;5084753;28;20074;-86
2022/08/03 00:28:02;;;;;;;6.40;2.53;;;;;;;21.42;54.43;95208.22;5084988;28;20040;-86
2022/08/03 00:30:28;;;;;;;7.13;2.65;;;;;;;21.61;54.44;95249.97;5084935;28;20158;-85
2022/08/03 00:32:54;;;;;;;6.18;2.70;;;;;;;21.03;54.41;95152.31;5084749;28;20039;-85
2022/08/03 00:35:19;;;;;;;5.78;2.58;;;;;;;21.19;54.93;95215.22;5103209;28;20047;-85
2022/08/03 00:37:45;;;;;;;8.45;2.58;;;;;;;21.51;55.28;95281.69;5103107;28;20064;-85
2022/08/03 00:40:13;;;;;;;7.57;2.70;;;;;;;21.49;55.15;95270.47;5081600;28;20898;-85
2022/08/03 00:42:58;;;;;;;5.43;2.30;;;;;;;21.75;54.30;95282.78;5089497;28;20040;-85
2022/08/03 00:45:26;;;;;;;8.20;2.42;;;;;;;21.77;54.15;95291.31;5084211;28;20035;-85
2022/08/03 00:47:52;;;;;;;5.63;2.33;;;;;;;21.65;54.28;95291.38;5102332;28;20038;-85
2022/08/03 00:50:19;;;;;;;7.20;2.97;;;;;;;21.33;53.56;95236.44;5084087;28;20525;-85
2022/08/03 00:52:45;;;;;;;4.63;2.60;;;;;;;20.98;53.84;95184.91;5084193;28;20031;-85
2022/08/03 00:55:11;;;;;;;4.00;2.40;;;;;;;21.03;52.84;95195.44;5084281;28;20369;-86
2022/08/03 00:57:38;;;;;;;4.93;2.13;;;;;;;21.13;53.15;95220.03;5083688;28;20035;-86
2022/08/03 01:00:07;;;;;;;4.82;2.65;;;;;;;21.16;52.81;95207.78;5103265;28;20496;-86
2022/08/03 01:02:33;;;;;;;6.38;2.22;;;;;;;20.04;52.87;95044.94;5083882;28;20234;-85
2022/08/03 01:04:59;;;;;;;2.38;1.98;;;;;;;21.51;52.62;95268.22;5083413;28;20114;-85
2022/08/03 01:07:39;;;;;;;3.03;2.25;;;;;;;21.59;52.53;95282.69;5083890;28;20403;-85
2022/08/03 01:10:42;;;;;;;3.50;2.30;;;;;;;21.61;52.51;95275.06;5082992;28;20490;-85
2022/08/03 01:13:23;;;;;;;2.67;1.90;;;;;;;21.66;52.26;95280.25;5078814;28;20314;-85
2022/08/03 01:15:59;;;;;;;8.73;2.33;;;;;;;21.61;53.01;95290.47;5084739;28;20413;-85
2022/08/03 01:18:56;;;;;;;4.10;2.13;;;;;;;21.05;53.28;95206.69;5083967;28;20039;-85
2022/08/03 01:21:30;;;;;;;6.55;2.10;;;;;;;21.71;52.96;95279.19;5053485;28;20047;-85
2022/08/03 01:24:43;;;;;;;3.38;2.05;;;;;;;21.51;52.95;95253.97;5103012;28;20039;-85
2022/08/03 01:27:14;;;;;;;5.68;2.08;;;;;;;21.33;52.73;95217.56;5007322;28;20108;-85
2022/08/03 01:29:39;;;;;;;;;;;;;;;21.67;52.85;95272.91;5103383;28;20089;-85
2022/08/03 01:32:12;;;;;;;2.65;1.95;;;;;;;20.95;52.35;95159.41;5083140;28;19923;-85
2022/08/03 01:34:46;;;;;;;4.32;2.00;;;;;;;21.66;52.56;95277.53;5074835;28;20050;-85
2022/08/03 01:37:19;;;;;;;3.10;1.90;;;;;;;21.14;52.78;95191.16;5083289;28;20024;-85
2022/08/03 01:39:45;;;;;;;5.35;2.30;;;;;;;21.72;52.81;95278.88;5085934;28;20047;-85
2022/08/03 01:42:13;;;;;;;5.50;2.30;;;;;;;21.43;53.05;95234.06;5083687;28;20089;-85
2022/08/03 01:44:41;;;;;;;3.78;1.95;;;;;;;21.10;53.46;95238.81;5089688;28;20059;-85
2022/08/03 01:47:09;;;;;;;4.50;1.92;;;;;;;21.22;53.00;95246.13;5091658;28;20032;-85
2022/08/03 01:49:39;;;;;;;9.27;2.38;;;;;;;21.47;53.10;95290.81;5089046;28;20091;-85
2022/08/03 01:52:06;;;;;;;3.92;2.00;;;;;;;21.51;52.78;95287.09;5105820;28;20558;-85
2022/08/03 01:54:35;;;;;;;3.45;2.00;;;;;;;21.25;52.45;95254.31;5084453;28;20420;-85
2022/08/03 01:57:02;;;;;;;9.65;2.60;;;;;;;21.20;52.49;95245.69;5101809;28;20028;-85
2022/08/03 01:59:29;;;;;;;4.20;2.10;;;;;;;20.82;52.91;95192.09;5083186;28;20141;-84
2022/08/03 02:01:56;;;;;;;4.93;1.92;;;;;;;21.02;53.55;95229.72;5082847;28;20027;-84
2022/08/03 02:04:24;;;;;;;8.77;1.95;;;;;;;21.48;53.21;95284.31;5081258;28;20124;-84
2022/08/03 02:06:52;;;;;;;4.57;2.20;;;;;;;21.35;53.59;95280.06;5101030;28;20445;-84
2022/08/03 02:09:19;;;;;;;4.93;1.70;;;;;;;20.11;53.96;95101.69;5081713;28;20118;-84
2022/08/03 02:11:45;;;;;;;4.55;2.05;;;;;;;21.22;54.14;95276.56;5082637;28;20115;-84
2022/08/03 02:14:13;;;;;;;4.20;2.30;;;;;;;21.17;54.56;95282.19;5082700;28;20553;-84
2022/08/03 02:16:39;;;;;;;5.88;2.83;;;;;;;20.97;54.34;95246.13;5082826;28;20049;-84
2022/08/03 02:19:06;;;;;;;3.55;2.13;;;;;;;21.15;55.05;95281.72;5082803;28;20023;-84
2022/08/03 02:21:35;;;;;;;5.95;2.35;;;;;;;20.68;54.88;95209.38;5082361;28;20032;-84
2022/08/03 02:24:03;;;;;;;4.53;2.20;;;;;;;20.87;55.04;95249.25;5082087;28;20024;-84
2022/08/03 02:26:29;;;;;;;6.20;2.00;;;;;;;20.83;55.58;95240.25;5081359;28;20031;-84
2022/08/03 02:28:58;;;;;;;6.70;2.50;;;;;;;20.55;55.36;95213.19;5101577;28;20055;-84
2022/08/03 02:31:29;;;;;;;12.60;2.67;;;;;;;20.79;55.94;95259.03;5083075;28;20039;-83
2022/08/03 02:34:01;;;;;;;3.03;2.20;;;;;;;20.96;55.62;95273.41;5101319;28;20062;-84
2022/08/03 02:36:29;;;;;;;7.43;2.58;;;;;;;20.74;56.06;95245.78;5100750;28;20047;-84
2022/08/03 02:38:58;;;;;;;3.45;2.17;;;;;;;20.93;56.30;95279.47;5070208;28;20368;-84
2022/08/03 02:41:29;;;;;;;6.25;2.22;;;;;;;20.14;56.17;95159.47;5080557;28;20063;-84
2022/08/03 02:43:58;;;;;;;4.78;1.75;;;;;;;20.27;55.90;95179.91;5061829;28;20027;-84
2022/08/03 02:46:29;;;;;;;8.15;3.10;;;;;;;20.85;55.96;95270.34;5080088;28;20092;-84
2022/08/03 02:48:56;;;;;;;9.70;2.30;;;;;;;20.31;55.89;95192.34;5061212;28;20486;-84
2022/08/03 02:51:23;;;;;;;6.25;2.50;;;;;;;19.95;56.08;95141.94;5061668;28;20048;-84
2022/08/03 02:53:50;;;;;;;6.97;2.47;;;;;;;20.70;56.71;95279.09;5062004;28;20035;-84
2022/08/03 02:56:18;;;;;;;10.43;2.90;;;;;;;20.26;56.92;95224.09;5059747;28;20134;-84
2022/08/03 02:58:46;;;;;;;10.68;2.47;;;;;;;20.10;56.53;95180.09;5052893;28;20040;-84
2022/08/03 03:01:12;;;;;;;9.05;2.55;;;;;;;20.48;56.95;95257.97;5077611;28;20032;-84
2022/08/03 03:03:39;;;;;;;5.63;2.40;;;;;;;20.49;57.04;95254.94;5061428;28;20063;-84
2022/08/03 03:06:06;;;;;;;5.38;3.17;;;;;;;20.67;56.97;95282.47;5061087;28;20130;-84
2022/08/03 03:08:32;;;;;;;7.65;2.80;;;;;;;20.71;57.13;95300.34;5061640;28;20483;-83
2022/08/03 03:11:00;;;;;;;5.82;3.10;;;;;;;20.68;57.03;95301.00;5062163;28;20934;-83
2022/08/03 03:13:30;;;;;;;7.38;2.83;;;;;;;20.14;57.92;95253.72;5062812;28;20039;-84
2022/08/03 03:15:59;;;;;;;7.72;2.70;;;;;;;20.16;57.39;95248.75;5083831;28;20539;-84
2022/08/03 03:18:27;;;;;;;10.30;2.50;;;;;;;19.81;56.99;95183.72;5061655;28;20085;-84
2022/08/03 03:20:54;;;;;;;9.50;2.58;;;;;;;20.53;57.24;95296.25;5061702;28;20142;-84
2022/08/03 03:23:22;;;;;;;4.88;2.60;;;;;;;19.97;57.02;95211.59;5061598;28;20114;-84
2022/08/03 03:25:48;;;;;;;4.47;2.58;;;;;;;20.14;56.63;95254.47;5079450;28;20972;-84
2022/08/03 03:28:14;;;;;;;5.82;2.42;;;;;;;19.75;56.74;95220.81;5080377;28;20044;-84
2022/08/03 03:30:40;;;;;;;5.50;2.47;;;;;;;20.09;56.90;95289.69;5061382;28;20620;-85
2022/08/03 03:33:06;;;;;;;5.20;2.60;;;;;;;20.15;56.44;95280.28;5061177;28;20074;-85
2022/08/03 03:35:31;;;;;;;4.80;2.80;;;;;;;20.35;56.15;95297.56;5060478;28;20039;-84
2022/08/03 03:37:57;;;;;;;4.53;2.63;;;;;;;20.27;55.96;95282.25;5083419;28;20052;-84
2022/08/03 03:40:23;;;;;;;5.35;3.00;;;;;;;20.15;56.01;95266.81;5080647;28;20036;-84
2022/08/03 03:42:50;;;;;;;7.18;3.10;;;;;;;19.57;55.92;95160.97;5099206;28;20039;-84
2022/08/03 03:45:15;;;;;;;7.97;3.03;;;;;;;20.04;55.75;95242.22;5081243;28;20044;-84
2022/08/03 03:47:41;;;;;;;7.18;2.90;;;;;;;19.82;55.74;95204.91;5081209;28;20490;-84
2022/08/03 03:50:07;;;;;;;5.05;2.83;;;;;;;20.30;55.41;95271.56;5100939;28;20035;-84
2022/08/03 03:52:33;;;;;;;4.95;2.60;;;;;;;20.49;55.58;95303.44;5081285;28;20044;-85
2022/08/03 03:54:59;;;;;;;8.65;3.30;;;;;;;19.83;55.07;95190.34;5100313;28;20042;-84
2022/08/03 03:57:25;;;;;;;6.57;3.38;;;;;;;19.99;55.20;95228.97;5086779;28;20474;-84
2022/08/03 03:59:50;;;;;;;9.00;3.67;;;;;;;20.63;55.44;95330.84;5081167;28;20608;-84
2022/08/03 04:02:16;;;;;;;23.65;4.03;;;;;;;20.06;55.95;95257.28;5099254;28;20039;-85
2022/08/03 04:13:11;;;;;;;10.32;4.07;;;;;;;20.52;56.17;95283.13;5098952;28;20043;-85
2022/08/03 04:15:40;;;;;;;11.20;4.25;;;;;;;20.70;56.08;95312.22;5080587;28;20039;-84
2022/08/03 04:18:11;;;;;;;12.02;3.78;;;;;;;20.75;56.09;95316.63;5099774;28;20047;-85
2022/08/03 04:20:39;;;;;;;11.73;3.78;;;;;;;20.80;56.20;95316.41;5075821;28;20032;-84
2022/08/03 04:23:06;;;;;;;11.15;4.63;;;;;;;20.51;56.15;95282.34;5077844;28;20032;-84
2022/08/03 04:25:34;;;;;;;6.47;3.58;;;;;;;20.38;56.14;95259.97;5080611;28;20473;-85
2022/08/03 04:28:00;;;;;;;10.68;4.07;;;;;;;20.56;56.34;95289.41;5081481;28;20456;-85
2022/08/03 04:30:27;;;;;;;11.85;4.30;;;;;;;19.87;56.13;95187.75;5080692;28;20108;-84
2022/08/03 04:32:56;;;;;;;7.10;3.92;;;;;;;20.79;55.97;95318.31;5081490;28;20031;-84
2022/08/03 04:35:23;;;;;;;12.75;4.45;;;;;;;19.99;55.92;95212.81;5080739;28;20053;-84
2022/08/03 04:37:51;;;;;;;16.02;4.30;;;;;;;20.33;56.01;95257.47;5080534;28;20449;-85
2022/08/03 04:40:49;;;;;;;13.25;4.10;;;;;;;20.48;55.95;95257.97;5100046;28;20031;-84
2022/08/03 04:43:17;;;;;;;10.75;4.50;;;;;;;21.00;55.68;95336.31;5026218;28;20054;-84
2022/08/03 04:45:45;;;;;;;19.58;4.40;;;;;;;20.65;55.82;95280.13;5081476;28;20047;-84
2022/08/03 04:48:13;;;;;;;9.55;4.00;;;;;;;21.02;55.40;95344.84;5080655;28;20591;-84
2022/08/03 04:50:40;;;;;;;12.50;3.60;;;;;;;20.50;55.06;95247.66;5077451;28;20036;-85
2022/08/03 04:53:06;;;;;;;13.18;3.50;;;;;;;20.59;54.99;95257.22;5084656;28;20039;-84
2022/08/03 04:55:33;;;;;;;10.18;3.67;;;;;;;21.16;55.09;95348.00;5081369;28;20039;-84
2022/08/03 04:58:00;;;;;;;10.68;4.18;;;;;;;21.03;55.08;95327.56;5081967;28;20043;-85
2022/08/03 05:00:26;;;;;;;19.83;4.68;;;;;;;20.66;54.75;95262.84;5101274;28;20456;-84
2022/08/03 05:02:52;;;;;;;12.88;4.50;;;;;;;20.06;54.40;95173.81;5102043;28;20078;-84
2022/08/03 05:05:18;;;;;;;13.98;4.70;;;;;;;21.00;54.49;95320.13;5082240;28;20122;-85
2022/08/03 05:07:43;;;;;;;11.88;4.68;;;;;;;21.40;54.07;95352.66;5083960;28;20146;-85
2022/08/03 05:10:10;;;;;;;12.07;4.10;;;;;;;20.70;54.96;95263.72;5101643;28;20059;-85
2022/08/03 05:12:36;;;;;;;11.80;4.60;;;;;;;21.05;54.27;95319.94;5082876;28;20043;-85
2022/08/03 05:15:02;;;;;;;9.95;5.78;;;;;;;21.09;54.00;95323.50;5083786;28;20534;-85
2022/08/03 05:17:27;;;;;;;14.43;4.95;;;;;;;21.45;53.64;95366.69;5101755;28;20035;-84
2022/08/03 05:19:53;;;;;;;17.77;4.95;;;;;;;21.25;53.61;95327.16;5083028;28;20035;-85
2022/08/03 05:22:20;;;;;;;11.88;4.57;;;;;;;21.55;53.83;95368.97;5101919;28;20050;-85
2022/08/03 05:24:45;;;;;;;15.48;4.80;;;;;;;21.03;54.18;95290.59;5082301;28;20046;-85
2022/08/03 05:27:16;;;;;;;7.20;4.00;;;;;;;21.56;53.95;95377.84;5061912;28;20044;-85
2022/08/03 05:29:42;;;;;;;11.20;4.13;;;;;;;21.03;54.07;95284.41;5063133;28;20612;-84
2022/08/03 05:32:08;;;;;;;8.20;4.05;;;;;;;21.33;53.78;95344.34;5062813;28;20554;-85
2022/08/03 05:34:33;;;;;;;9.05;4.03;;;;;;;21.44;53.58;95345.44;5080943;28;20047;-85
2022/08/03 05:36:58;;;;;;;9.20;3.60;;;;;;;20.79;53.43;95250.94;5062465;28;20155;-85
2022/08/03 05:39:24;;;;;;;9.07;4.10;;;;;;;21.03;53.14;95287.91;5074053;28;20052;-85
2022/08/03 05:41:51;;;;;;;7.05;3.60;;;;;;;20.77;53.05;95247.00;5082239;28;20082;-85
2022/08/03 05:44:16;;;;;;;10.07;3.88;;;;;;;21.48;53.26;95384.13;5052261;28;20505;-85
2022/08/03 05:46:41;;;;;;;13.13;5.07;;;;;;;21.06;53.70;95335.75;5067371;28;20040;-84
2022/08/03 05:49:07;;;;;;;9.55;3.65;;;;;;;21.08;53.44;95354.28;5100541;28;20119;-85
2022/08/03 05:51:32;;;;;;;12.18;3.83;;;;;;;21.37;53.35;95364.13;5082781;28;20044;-85
2022/08/03 05:53:58;;;;;;;6.93;3.42;;;;;;;21.42;53.29;95353.91;5081924;28;20035;-85
2022/08/03 05:56:26;;;;;;;15.10;4.00;;;;;;;21.55;52.97;95358.16;5082359;28;20474;-85
2022/08/03 05:58:52;;;;;;;9.82;4.28;;;;;;;21.33;53.21;95339.75;5058648;28;20085;-84
2022/08/03 06:01:20;;;;;;;9.23;3.90;;;;;;;21.56;53.35;95380.53;5077530;28;20126;-84
2022/08/03 06:03:47;;;;;;;12.52;4.03;;;;;;;21.59;53.26;95382.53;5099092;28;20099;-85
2022/08/03 06:06:13;;;;;;;22.00;4.82;;;;;;;21.56;53.10;95370.53;5100311;28;20110;-85
2022/08/03 06:08:40;;;;;;;9.13;4.03;;;;;;;20.95;54.01;95286.09;5080700;28;20061;-85
2022/08/03 06:11:05;;;;;;;12.85;5.10;;;;;;;21.50;53.92;95357.63;5081366;28;20050;-85
2022/08/03 06:13:31;;;;;;;12.30;5.03;;;;;;;21.63;53.30;95340.28;5100004;28;20123;-85
2022/08/03 06:15:56;;;;;;;14.63;5.57;;;;;;;21.18;53.12;95264.91;5099974;28;20728;-85
2022/08/03 06:18:23;;;;;;;9.90;4.45;;;;;;;21.76;53.74;95332.94;5099753;28;20042;-85
2022/08/03 06:20:49;;;;;;;8.40;4.10;;;;;;;21.49;54.04;95296.69;5075413;28;20123;-85
2022/08/03 06:23:15;;;;;;;16.48;4.57;;;;;;;22.09;53.23;95376.78;5059330;28;20043;-85
2022/08/03 06:25:41;;;;;;;9.18;3.80;;;;;;;22.02;52.40;95352.28;5060701;28;20490;-84
2022/08/03 06:28:07;;;;;;;8.98;4.28;;;;;;;22.28;51.96;95384.25;5061570;28;20612;-84
2022/08/03 06:30:32;;;;;;;10.05;4.28;;;;;;;21.73;51.85;95280.44;5061466;28;20036;-85
2022/08/03 06:32:58;;;;;;;13.60;4.28;;;;;;;22.46;51.36;95385.56;5080826;28;20610;-83
2022/08/03 06:35:23;;;;;;;12.32;4.18;;;;;;;22.27;50.84;95353.78;5062415;28;20032;-84
2022/08/03 06:37:50;;;;;;;13.65;4.38;;;;;;;22.53;50.95;95382.25;5063156;28;20060;-83
2022/08/03 06:40:18;;;;;;;9.27;4.38;;;;;;;22.45;51.29;95377.78;5100781;28;20032;-85
2022/08/03 06:42:44;;;;;;;14.60;3.95;;;;;;;22.12;51.07;95324.81;5101666;28;20039;-85
2022/08/03 06:45:10;;;;;;;12.95;4.50;;;;;;;;;;5097582;28;20033;-85
2022/08/03 06:47:39;;;;;;;12.63;3.60;;;;;;;21.68;51.32;95279.88;5081303;28;20039;-85
2022/08/03 06:50:06;;;;;;;8.73;3.90;;;;;;;21.77;50.90;95261.63;5058263;28;20028;-85
2022/08/03 06:52:31;;;;;;;16.63;4.30;;;;;;;22.31;50.80;95329.56;5068615;28;20032;-85
2022/08/03 06:54:57;;;;;;;13.55;4.40;;;;;;;22.59;50.64;95383.59;5075618;28;20118;-84
2022/08/03 06:57:23;;;;;;;12.55;3.90;;;;;;;22.68;50.24;95376.91;5074506;28;20111;-85
2022/08/03 06:59:49;;;;;;;11.52;4.32;;;;;;;22.27;50.11;95317.88;5072496;28;20576;-85
2022/08/03 07:02:15;;;;;;;10.20;3.75;;;;;;;21.90;50.20;95253.16;5090389;28;20032;-85
2022/08/03 07:04:40;;;;;;;15.05;4.63;;;;;;;22.53;49.73;95328.22;5077177;28;20036;-85
2022/08/03 07:07:05;;;;;;;11.30;4.50;;;;;;;22.68;49.76;95339.06;5091804;28;20118;-85
2022/08/03 07:09:31;;;;;;;13.85;4.65;;;;;;;22.49;49.37;95313.84;5094003;28;20505;-85
2022/08/03 07:11:57;;;;;;;11.70;3.78;;;;;;;22.53;49.65;95322.81;5112492;28;20027;-84
2022/08/03 07:14:23;;;;;;;8.35;4.32;;;;;;;22.13;49.67;95231.81;5112257;28;20038;-84
2022/08/03 07:16:48;;;;;;;18.23;4.80;;;;;;;22.67;50.06;95317.78;5104889;28;20023;-84
2022/08/03 07:19:14;;;;;;;18.58;6.07;;;;;;;22.90;50.33;95337.72;5070934;28;20487;-84
2022/08/03 07:21:39;;;;;;;12.82;4.47;;;;;;;22.56;49.78;95290.47;5091601;28;20093;-84
2022/08/03 07:24:05;;;;;;;19.85;5.13;;;;;;;22.77;49.71;95320.00;5062908;28;20032;-84
2022/08/03 07:26:30;;;;;;;18.23;5.10;;;;;;;23.14;49.16;95381.97;5088515;28;20075;-84
2022/08/03 07:28:55;;;;;;;13.73;5.85;;;;;;;22.23;49.81;95254.84;5070391;28;20034;-85
2022/08/03 07:31:21;;;;;;;12.07;4.75;;;;;;;22.78;48.86;95337.00;5094904;28;20036;-84
2022/08/03 07:33:46;;;;;;;15.10;5.45;;;;;;;22.71;49.64;95332.97;5073685;28;20565;-84
2022/08/03 07:36:12;;;;;;;17.67;5.07;;;;;;;22.36;49.48;95250.94;5074022;28;20044;-84
2022/08/03 07:38:37;;;;;;;10.85;4.63;;;;;;;23.17;49.12;95379.38;5074140;28;20052;-84
2022/08/03 07:41:03;;;;;;;15.35;5.03;;;;;;;23.06;48.91;95357.44;5073826;28;20119;-85
2022/08/03 07:43:28;;;;;;;19.45;5.40;;;;;;;23.09;48.93;95356.78;5090201;28;20109;-84
2022/08/03 07:45:54;;;;;;;11.07;5.72;;;;;;;23.27;49.11;95378.03;5073600;28;20024;-84
2022/08/03 07:48:19;;;;;;;17.65;5.38;;;;;;;21.77;48.66;95140.94;5090268;28;20032;-85
2022/08/03 07:50:45;;;;;;;17.02;5.60;;;;;;;23.30;48.95;95371.94;5073835;28;20407;-85
2022/08/03 07:53:10;;;;;;;14.90;4.65;;;;;;;23.28;48.45;95361.47;5073051;28;20039;-85
2022/08/03 07:55:36;;;;;;;19.80;5.28;;;;;;;23.10;48.26;95314.28;5072454;28;20108;-84
2022/08/03 07:58:14;;;;;;;17.27;5.10;;;;;;;23.30;48.40;95321.31;5073515;28;20031;-84
2022/08/03 08:00:40;;;;;;;18.73;5.28;;;;;;;23.07;46.54;95279.78;5070429;28;20442;-84
2022/08/03 08:03:06;;;;;;;11.57;5.10;;;;;;;23.69;46.04;95345.84;5070683;28;20119;-84
2022/08/03 08:05:31;;;;;;;12.68;6.35;;;;;;;23.36;46.53;95289.34;5112286;28;20024;-84
2022/08/03 08:07:57;;;;;;;15.18;5.80;;;;;;;23.58;46.25;95332.03;5093118;28;20028;-84
2022/08/03 08:10:22;;;;;;;17.15;6.15;;;;;;;23.72;46.40;95347.84;5093589;28;20035;-84
2022/08/03 08:12:48;;;;;;;13.25;5.40;;;;;;;23.75;45.62;95336.28;5091177;28;20088;-84
2022/08/03 08:15:14;;;;;;;15.32;5.80;;;;;;;23.69;45.46;95327.66;5071849;28;20032;-84
2022/08/03 08:17:43;;;;;;;13.23;5.30;;;;;;;24.25;44.87;95381.53;5073395;28;20089;-84
2022/08/03 08:20:10;;;;;;;15.60;4.85;;;;;;;24.07;45.06;95356.75;5072517;28;20032;-84
2022/08/03 08:22:36;;;;;;;14.65;5.30;;;;;;;24.34;44.04;95384.03;5082840;28;20024;-84
2022/08/03 08:25:01;;;;;;;12.55;4.45;;;;;;;23.99;43.41;95341.47;5111554;28;20050;-84
2022/08/03 08:27:27;;;;;;;11.00;3.90;;;;;;;24.21;43.60;95365.19;5098572;28;20031;-84
2022/08/03 08:29:52;;;;;;;11.68;4.18;;;;;;;24.06;44.35;95306.41;5097202;28;20489;-84
2022/08/03 08:32:18;;;;;;;10.82;4.25;;;;;;;24.05;43.72;95296.69;5113565;28;20429;-84
2022/08/03 08:34:43;;;;;;;7.82;2.88;;;;;;;23.64;41.18;95235.91;5116565;28;20416;-85
2022/08/03 08:37:09;;;;;;;8.07;3.55;;;;;;;24.43;41.67;95388.09;5095229;28;20032;-84
2022/08/03 08:39:34;;;;;;;10.27;3.88;;;;;;;23.50;42.62;95232.88;5077685;28;20052;-84
2022/08/03 08:41:59;;;;;;;10.38;2.95;;;;;;;23.98;42.41;95310.09;5062162;28;20404;-85
2022/08/03 08:44:25;;;;;;;9.93;3.45;;;;;;;24.51;41.87;95368.13;5077535;28;20123;-85
2022/08/03 08:46:52;;;;;;;4.63;3.60;;;;;;;24.23;42.86;95324.97;5089814;28;20036;-84
2022/08/03 08:49:22;;;;;;;5.70;3.15;;;;;;;24.33;42.15;95326.34;5105224;28;20498;-85
2022/08/03 08:51:50;;;;;;;9.80;2.90;;;;;;;24.14;41.66;95291.84;5117284;28;20028;-85
2022/08/03 08:54:20;;;;;;;5.47;2.90;;;;;;;24.70;41.57;95370.06;5114437;28;20051;-85
2022/08/03 08:56:51;;;;;;;7.50;2.80;;;;;;;24.46;41.55;95337.81;5106492;28;20024;-85
2022/08/03 08:59:17;;;;;;;9.52;2.78;;;;;;;24.65;41.54;95343.19;5107739;28;20525;-84
2022/08/03 09:01:43;;;;;;;6.90;2.47;;;;;;;24.82;41.48;95328.41;5113602;27;20602;-84
2022/08/03 09:04:08;;;;;;;13.63;2.92;;;;;;;24.61;41.77;95278.06;5095063;28;20040;-85
2022/08/03 09:06:34;;;;;;;4.47;2.22;;;;;;;25.17;39.94;95358.91;5108021;28;20502;-84
2022/08/03 09:08:59;;;;;;;8.43;2.28;;;;;;;24.81;40.39;95305.13;5114396;28;20067;-84
2022/08/03 09:11:25;;;;;;;8.77;2.67;;;;;;;25.10;40.57;95339.03;5096451;28;20028;-84
2022/08/03 09:13:50;;;;;;;3.78;2.45;;;;;;;24.91;39.83;95282.88;5111873;28;20027;-84
2022/08/03 09:16:18;;;;;;;3.95;2.33;;;;;;;24.77;39.55;95256.28;5101467;27;20413;-85
2022/08/03 09:18:47;;;;;;;4.65;2.40;;;;;;;25.49;39.24;95366.78;5097256;28;20042;-84
2022/08/03 09:21:28;;;;;;;8.32;2.60;;;;;;;25.42;38.96;95332.16;5115543;28;20212;-84
2022/08/03 09:23:56;;;;;;;10.02;2.70;;;;;;;25.74;39.73;95357.91;5094197;28;20031;-84
2022/08/03 09:26:25;;;;;;;4.07;2.30;;;;;;;25.82;38.70;95350.66;5096205;28;20047;-84
2022/08/03 09:29:03;;;;;;;6.88;2.78;;;;;;;25.68;38.63;95324.06;5096515;28;20049;-84
2022/08/03 09:31:33;;;;;;;5.75;2.67;;;;;;;25.34;37.90;95252.53;5107022;28;20032;-84
2022/08/03 09:34:07;;;;;;;7.38;2.60;;;;;;;26.09;37.92;95349.47;5095785;28;20118;-85
2022/08/03 09:36:46;;;;;;;8.18;3.20;;;;;;;25.77;37.73;95299.34;5096226;28;20044;-84
2022/08/03 09:39:22;;;;;;;6.93;2.80;;;;;;;26.25;37.78;95348.50;5092776;28;20549;-84
2022/08/03 09:42:09;;;;;;;4.22;2.03;;;;;;;26.24;36.78;95344.22;5092553;28;20061;-84
2022/08/03 09:44:43;;;;;;;4.22;2.10;;;;;;;26.33;36.96;95348.25;5094813;28;20035;-85
2022/08/03 09:47:10;;;;;;;6.15;2.35;;;;;;;26.39;37.07;95321.53;5095753;28;20065;-85
2022/08/03 09:49:37;;;;;;;4.45;2.22;;;;;;;26.38;36.81;95290.06;5092554;28;20074;-85
2022/08/03 09:52:17;;;;;;;6.47;2.78;;;;;;;26.77;36.68;95309.50;5094404;28;20031;-84
2022/08/03 09:54:43;;;;;;;9.48;3.00;;;;;;;27.36;36.59;95345.84;5092542;28;20494;-85
2022/08/03 09:57:23;;;;;;;2.47;1.60;;;;;;;27.85;36.31;95342.72;5088266;28;20053;-85
2022/08/03 09:59:50;;;;;;;4.65;1.92;;;;;;;28.22;35.68;95327.00;5094577;28;20104;-85
2022/08/03 10:02:23;;;;;;;4.75;2.63;;;;;;;28.70;34.39;95313.91;5092563;28;20116;-85
2022/08/03 10:04:51;;;;;;;3.88;2.22;;;;;;;28.69;32.91;95267.91;5094483;28;20034;-84
2022/08/03 10:07:18;;;;;;;4.30;1.85;;;;;;;29.07;32.33;95338.19;5092237;28;20435;-85
2022/08/03 10:09:57;;;;;;;4.13;1.83;;;;;;;29.71;32.93;95332.00;5089234;28;20036;-84
2022/08/03 10:12:23;;;;;;;8.52;1.90;;;;;;;29.12;32.16;95189.59;5092851;28;20089;-85
2022/08/03 10:14:49;;;;;;;9.10;2.28;;;;;;;29.28;30.92;95197.38;5091861;28;20036;-84
2022/08/03 10:17:14;;;;;;;6.25;2.25;;;;;;;30.41;30.45;95319.34;5091949;28;20595;-85
2022/08/03 10:19:40;;;;;;;3.33;1.60;;;;;;;30.62;29.95;95284.47;5092028;28;20046;-85
2022/08/03 10:22:12;;;;;;;4.93;1.75;;;;;;;31.28;28.95;95295.38;5088967;28;20028;-86
2022/08/03 10:24:40;;;;;;;5.72;2.30;;;;;;;32.08;28.56;95327.97;5091291;28;20498;-85
2022/08/03 10:27:07;;;;;;;7.07;2.20;;;;;;;31.96;28.26;95265.41;5090582;28;20031;-85
2022/08/03 10:29:44;;;;;;;9.32;2.20;;;;;;;32.22;27.04;95252.19;5094850;28;20038;-85
2022/08/03 10:32:20;;;;;;;4.03;1.55;;;;;;;32.73;26.58;95245.66;5092689;28;20031;-85
2022/08/03 10:34:50;;;;;;;3.97;1.85;;;;;;;33.65;26.67;95321.16;5090765;28;20093;-85
2022/08/03 10:37:16;;;;;;;6.40;2.00;;;;;;;33.71;26.62;95276.28;5091511;28;20490;-85
2022/08/03 10:39:52;;;;;;;8.32;1.75;;;;;;;33.74;25.59;95243.63;5109437;28;20039;-85
2022/08/03 10:42:20;;;;;;;6.40;1.70;;;;;;;34.12;26.25;95285.38;5092277;28;20027;-85
2022/08/03 10:44:48;;;;;;;12.00;2.45;;;;;;;33.91;25.41;95297.56;5092969;28;20031;-86
2022/08/03 10:47:14;;;;;;;6.43;1.98;;;;;;;34.14;25.24;95292.00;5109656;28;20494;-85
2022/08/03 10:49:40;;;;;;;6.60;1.92;;;;;;;33.85;25.58;95260.72;5093219;28;20107;-85
2022/08/03 10:52:06;;;;;;;5.63;1.90;;;;;;;34.20;24.95;95286.78;5112741;28;20031;-85
2022/08/03 10:57:46;;;;;;;2.70;1.50;;;;;;;34.52;24.72;95313.69;5113614;28;20108;-85
2022/08/03 11:00:17;;;;;;;6.28;1.90;;;;;;;34.26;25.21;95305.16;5091569;28;20516;-84
2022/08/03 11:03:05;;;;;;;4.10;1.30;;;;;;;34.50;24.09;95311.38;5100944;28;20035;-84
2022/08/03 11:05:40;;;;;;;4.50;1.38;;;;;;;34.25;24.61;95289.88;5094679;28;20223;-86
2022/08/03 11:08:24;;;;;;;1.50;1.38;;;;;;;34.39;25.31;95267.56;5094728;28;20031;-85
2022/08/03 11:10:52;;;;;;;3.35;1.90;;;;;;;34.48;24.54;95300.03;5113097;28;20498;-84
2022/08/03 11:13:20;;;;;;;5.50;2.00;;;;;;;34.46;24.94;95299.66;5112665;28;20043;-85
2022/08/03 11:15:47;;;;;;;2.97;1.92;;;;;;;34.19;24.96;95230.97;5110073;28;20566;-85
2022/08/03 11:18:14;;;;;;;5.00;1.80;;;;;;;34.78;23.88;95296.25;5086708;28;20047;-85
2022/08/03 11:20:44;;;;;;;2.38;2.00;;;;;;;34.44;23.23;95205.69;5114301;28;20489;-85
2022/08/03 11:23:10;;;;;;;2.38;1.67;;;;;;;34.30;23.50;95175.72;5094481;28;20036;-85
2022/08/03 11:26:08;;;;;;;2.90;1.50;;;;;;;35.70;23.38;95274.78;5094549;28;20122;-86
2022/08/03 11:28:34;;;;;;;2.90;1.40;;;;;;;34.73;23.30;95112.19;5113313;28;20039;-86
2022/08/03 11:31:21;;;;;;;2.80;1.60;;;;;;;35.37;23.49;95274.03;5095033;28;20035;-86
2022/08/03 11:34:09;;;;;;;2.83;1.38;;;;;;;34.75;23.65;95206.97;5094706;28;20035;-86
2022/08/03 11:37:12;;;;;;;4.28;1.60;;;;;;;35.67;23.86;95270.13;5104890;28;20044;-86
2022/08/03 11:39:46;;;;;;;5.30;1.40;;;;;;;35.24;23.62;95192.47;5072169;28;20082;-84
2022/08/03 11:42:20;;;;;;;3.58;1.50;;;;;;;35.71;23.73;95265.31;5072782;28;20048;-84
2022/08/03 11:44:46;;;;;;;4.70;1.52;;;;;;;35.36;23.92;95192.53;5094222;28;20065;-85
2022/08/03 11:47:16;;;;;;;2.70;1.02;;;;;;;34.62;24.41;95137.22;5073585;28;20035;-85
2022/08/03 11:49:49;;;;;;;7.22;1.95;;;;;;;35.31;23.52;95186.75;5073940;28;20102;-84